sensor_id;sensor_type;location;lat;lon;timestamp;P1;P2;P0
60816;PMS5003;51921;51.518;-3.188;2023-02-28T00:00:50;4;4;
60816;PMS5003;51921;51.518;-3.188;2023-02-28T00:03:16;6;5;
60816;PMS5003;51921;51.518;-3.188;2023-02-28T00:05:41;5;5;
60816;PMS5003;51921;51.518;-3.188;2023-02-28T00:08:07;5;5;
60816;PMS5003;51921;51.518;-3.188;2023-02-28T00:10:33;8;8;
60816;PMS5003;51921;51.518;-3.188;2023-02-28T00:12:59;4;4;
60816;PMS5003;51921;51.518;-3.188;2023-02-28T00:15:24;4;4;
60816;PMS5003;51921;51.518;-3.188;2023-02-28T00:17:50;4;3;
60816;PMS5003;51921;51.518;-3.188;2023-02-28T00:20:15;4;4;
60816;PMS5003;51921;51.518;-3.188;2023-02-28T00:22:41;3;2;
60816;PMS5003;51921;51.518;-3.188;2023-02-28T00:25:07;6;5;
60816;PMS5003;51921;51.518;-3.188;2023-02-28T00:27:32;5;4;
60816;PMS5003;51921;51.518;-3.188;2023-02-28T00:29:57;4;3;
60816;PMS5003;51921;51.518;-3.188;2023-02-28T00:32:23;3;3;
60816;PMS5003;51921;51.518;-3.188;2023-02-28T00:34:49;3;3;
60816;PMS5003;51921;51.518;-3.188;2023-02-28T00:37:14;5;4;
60816;PMS5003;51921;51.518;-3.188;2023-02-28T00:39:40;4;4;
60816;PMS5003;51921;51.518;-3.188;2023-02-28T00:42:06;4;4;
60816;PMS5003;51921;51.518;-3.188;2023-02-28T00:44:32;5;5;
60816;PMS5003;51921;51.518;-3.188;2023-02-28T00:46:57;4;4;
60816;PMS5003;51921;51.518;-3.188;2023-02-28T00:49:23;4;4;
60816;PMS5003;51921;51.518;-3.188;2023-02-28T00:51:48;4;4;
60816;PMS5003;51921;51.518;-3.188;2023-02-28T00:54:14;3;3;
60816;PMS5003;51921;51.518;-3.188;2023-02-28T00:56:40;3;3;
60816;PMS5003;51921;51.518;-3.188;2023-02-28T00:59:05;3;3;
60816;PMS5003;51921;51.518;-3.188;2023-02-28T01:01:31;3;3;
60816;PMS5003;51921;51.518;-3.188;2023-02-28T01:03:56;3;3;
60816;PMS5003;51921;51.518;-3.188;2023-02-28T01:06:22;3;3;
60816;PMS5003;51921;51.518;-3.188;2023-02-28T01:08:47;3;3;
60816;PMS5003;51921;51.518;-3.188;2023-02-28T01:11:14;3;3;
60816;PMS5003;51921;51.518;-3.188;2023-02-28T01:13:39;4;3;
60816;PMS5003;51921;51.518;-3.188;2023-02-28T01:16:05;5;4;
60816;PMS5003;51921;51.518;-3.188;2023-02-28T01:18:31;1;1;
60816;PMS5003;51921;51.518;-3.188;2023-02-28T01:20:56;3;3;
60816;PMS5003;51921;51.518;-3.188;2023-02-28T01:23:21;3;2;
60816;PMS5003;51921;51.518;-3.188;2023-02-28T01:25:47;3;3;
60816;PMS5003;51921;51.518;-3.188;2023-02-28T01:28:12;5;4;
60816;PMS5003;51921;51.518;-3.188;2023-02-28T01:30:38;3;2;
60816;PMS5003;51921;51.518;-3.188;2023-02-28T01:33:04;3;3;
60816;PMS5003;51921;51.518;-3.188;2023-02-28T01:35:31;3;3;
60816;PMS5003;51921;51.518;-3.188;2023-02-28T01:37:55;4;3;
60816;PMS5003;51921;51.518;-3.188;2023-02-28T01:40:20;4;4;
60816;PMS5003;51921;51.518;-3.188;2023-02-28T01:42:46;4;4;
60816;PMS5003;51921;51.518;-3.188;2023-02-28T01:45:18;3;3;
60816;PMS5003;51921;51.518;-3.188;2023-02-28T01:47:38;7;5;
60816;PMS5003;51921;51.518;-3.188;2023-02-28T01:50:05;4;4;
60816;PMS5003;51921;51.518;-3.188;2023-02-28T01:52:29;5;5;
60816;PMS5003;51921;51.518;-3.188;2023-02-28T01:54:55;7;5;
60816;PMS5003;51921;51.518;-3.188;2023-02-28T01:57:20;5;4;
60816;PMS5003;51921;51.518;-3.188;2023-02-28T01:59:48;4;3;
60816;PMS5003;51921;51.518;-3.188;2023-02-28T02:02:11;3;3;
60816;PMS5003;51921;51.518;-3.188;2023-02-28T02:04:38;4;3;
60816;PMS5003;51921;51.518;-3.188;2023-02-28T02:07:02;5;5;
60816;PMS5003;51921;51.518;-3.188;2023-02-28T02:09:28;6;5;
60816;PMS5003;51921;51.518;-3.188;2023-02-28T02:11:54;5;5;
60816;PMS5003;51921;51.518;-3.188;2023-02-28T02:14:30;6;4;
60816;PMS5003;51921;51.518;-3.188;2023-02-28T02:16:49;5;5;
60816;PMS5003;51921;51.518;-3.188;2023-02-28T02:19:16;4;4;
60816;PMS5003;51921;51.518;-3.188;2023-02-28T02:21:47;4;4;
60816;PMS5003;51921;51.518;-3.188;2023-02-28T02:24:13;4;4;
60816;PMS5003;51921;51.518;-3.188;2023-02-28T02:26:33;4;4;
60816;PMS5003;51921;51.518;-3.188;2023-02-28T02:28:57;5;4;
60816;PMS5003;51921;51.518;-3.188;2023-02-28T02:31:24;4;4;
60816;PMS5003;51921;51.518;-3.188;2023-02-28T02:36:11;4;4;
60816;PMS5003;51921;51.518;-3.188;2023-02-28T02:38:36;3;3;
60816;PMS5003;51921;51.518;-3.188;2023-02-28T02:41:04;3;3;
60816;PMS5003;51921;51.518;-3.188;2023-02-28T02:43:29;4;3;
60816;PMS5003;51921;51.518;-3.188;2023-02-28T02:45:53;3;3;
60816;PMS5003;51921;51.518;-3.188;2023-02-28T02:48:18;4;4;
60816;PMS5003;51921;51.518;-3.188;2023-02-28T02:50:44;3;3;
60816;PMS5003;51921;51.518;-3.188;2023-02-28T02:53:09;4;3;
60816;PMS5003;51921;51.518;-3.188;2023-02-28T02:55:36;4;3;
60816;PMS5003;51921;51.518;-3.188;2023-02-28T02:58:01;3;3;
60816;PMS5003;51921;51.518;-3.188;2023-02-28T03:00:26;4;4;
60816;PMS5003;51921;51.518;-3.188;2023-02-28T03:02:52;4;4;
60816;PMS5003;51921;51.518;-3.188;2023-02-28T03:05:18;4;4;
60816;PMS5003;51921;51.518;-3.188;2023-02-28T03:07:43;3;3;
60816;PMS5003;51921;51.518;-3.188;2023-02-28T03:12:38;4;4;
60816;PMS5003;51921;51.518;-3.188;2023-02-28T03:15:03;5;4;
60816;PMS5003;51921;51.518;-3.188;2023-02-28T03:17:31;5;4;
60816;PMS5003;51921;51.518;-3.188;2023-02-28T03:19:52;4;4;
60816;PMS5003;51921;51.518;-3.188;2023-02-28T03:22:23;3;3;
60816;PMS5003;51921;51.518;-3.188;2023-02-28T03:24:43;3;3;
60816;PMS5003;51921;51.518;-3.188;2023-02-28T03:27:09;4;4;
60816;PMS5003;51921;51.518;-3.188;2023-02-28T03:29:35;3;3;
60816;PMS5003;51921;51.518;-3.188;2023-02-28T03:32:00;4;4;
60816;PMS5003;51921;51.518;-3.188;2023-02-28T03:34:26;4;4;
60816;PMS5003;51921;51.518;-3.188;2023-02-28T03:36:52;3;3;
60816;PMS5003;51921;51.518;-3.188;2023-02-28T03:39:17;4;4;
60816;PMS5003;51921;51.518;-3.188;2023-02-28T03:41:42;4;3;
60816;PMS5003;51921;51.518;-3.188;2023-02-28T03:44:09;4;4;
60816;PMS5003;51921;51.518;-3.188;2023-02-28T03:46:34;3;2;
60816;PMS5003;51921;51.518;-3.188;2023-02-28T03:49:00;3;3;
60816;PMS5003;51921;51.518;-3.188;2023-02-28T03:51:24;3;3;
60816;PMS5003;51921;51.518;-3.188;2023-02-28T03:53:50;2;2;
60816;PMS5003;51921;51.518;-3.188;2023-02-28T03:56:16;4;3;
60816;PMS5003;51921;51.518;-3.188;2023-02-28T03:58:41;4;4;
60816;PMS5003;51921;51.518;-3.188;2023-02-28T04:01:07;3;3;
60816;PMS5003;51921;51.518;-3.188;2023-02-28T04:03:32;3;3;
60816;PMS5003;51921;51.518;-3.188;2023-02-28T04:05:58;2;2;
60816;PMS5003;51921;51.518;-3.188;2023-02-28T04:08:23;4;4;
60816;PMS5003;51921;51.518;-3.188;2023-02-28T04:10:50;3;3;
60816;PMS5003;51921;51.518;-3.188;2023-02-28T04:13:15;1;1;
60816;PMS5003;51921;51.518;-3.188;2023-02-28T04:15:40;3;2;
60816;PMS5003;51921;51.518;-3.188;2023-02-28T04:18:06;2;2;
60816;PMS5003;51921;51.518;-3.188;2023-02-28T04:20:31;4;4;
60816;PMS5003;51921;51.518;-3.188;2023-02-28T04:22:57;4;3;
60816;PMS5003;51921;51.518;-3.188;2023-02-28T04:25:23;4;4;
60816;PMS5003;51921;51.518;-3.188;2023-02-28T04:27:48;2;2;
60816;PMS5003;51921;51.518;-3.188;2023-02-28T04:30:14;3;3;
60816;PMS5003;51921;51.518;-3.188;2023-02-28T04:32:40;3;2;
60816;PMS5003;51921;51.518;-3.188;2023-02-28T04:35:06;3;3;
60816;PMS5003;51921;51.518;-3.188;2023-02-28T04:37:31;3;3;
60816;PMS5003;51921;51.518;-3.188;2023-02-28T04:39:56;4;4;
60816;PMS5003;51921;51.518;-3.188;2023-02-28T04:42:22;3;3;
60816;PMS5003;51921;51.518;-3.188;2023-02-28T04:44:48;4;4;
60816;PMS5003;51921;51.518;-3.188;2023-02-28T04:47:13;4;4;
60816;PMS5003;51921;51.518;-3.188;2023-02-28T04:49:39;4;4;
60816;PMS5003;51921;51.518;-3.188;2023-02-28T04:52:04;4;4;
60816;PMS5003;51921;51.518;-3.188;2023-02-28T04:54:30;4;3;
60816;PMS5003;51921;51.518;-3.188;2023-02-28T04:56:55;5;4;
60816;PMS5003;51921;51.518;-3.188;2023-02-28T04:59:21;5;5;
60816;PMS5003;51921;51.518;-3.188;2023-02-28T05:01:47;7;6;
60816;PMS5003;51921;51.518;-3.188;2023-02-28T05:04:12;7;7;
60816;PMS5003;51921;51.518;-3.188;2023-02-28T05:06:38;4;4;
60816;PMS5003;51921;51.518;-3.188;2023-02-28T05:09:04;6;6;
60816;PMS5003;51921;51.518;-3.188;2023-02-28T05:11:30;6;5;
60816;PMS5003;51921;51.518;-3.188;2023-02-28T05:13:55;5;5;
60816;PMS5003;51921;51.518;-3.188;2023-02-28T05:16:20;6;6;
60816;PMS5003;51921;51.518;-3.188;2023-02-28T05:18:46;6;5;
60816;PMS5003;51921;51.518;-3.188;2023-02-28T05:23:37;5;4;
60816;PMS5003;51921;51.518;-3.188;2023-02-28T05:26:03;5;5;
60816;PMS5003;51921;51.518;-3.188;2023-02-28T05:28:28;7;7;
60816;PMS5003;51921;51.518;-3.188;2023-02-28T05:30:54;7;7;
60816;PMS5003;51921;51.518;-3.188;2023-02-28T05:33:20;5;5;
60816;PMS5003;51921;51.518;-3.188;2023-02-28T05:35:45;4;4;
60816;PMS5003;51921;51.518;-3.188;2023-02-28T05:38:11;4;4;
60816;PMS5003;51921;51.518;-3.188;2023-02-28T05:40:37;5;5;
60816;PMS5003;51921;51.518;-3.188;2023-02-28T05:43:02;7;7;
60816;PMS5003;51921;51.518;-3.188;2023-02-28T05:45:28;5;5;
60816;PMS5003;51921;51.518;-3.188;2023-02-28T05:47:53;7;5;
60816;PMS5003;51921;51.518;-3.188;2023-02-28T05:50:19;4;4;
60816;PMS5003;51921;51.518;-3.188;2023-02-28T05:52:48;6;6;
60816;PMS5003;51921;51.518;-3.188;2023-02-28T05:55:10;6;6;
60816;PMS5003;51921;51.518;-3.188;2023-02-28T05:57:36;6;5;
60816;PMS5003;51921;51.518;-3.188;2023-02-28T06:00:02;7;5;
60816;PMS5003;51921;51.518;-3.188;2023-02-28T06:02:27;4;4;
60816;PMS5003;51921;51.518;-3.188;2023-02-28T06:04:53;5;5;
60816;PMS5003;51921;51.518;-3.188;2023-02-28T06:07:18;5;4;
60816;PMS5003;51921;51.518;-3.188;2023-02-28T06:09:44;4;4;
60816;PMS5003;51921;51.518;-3.188;2023-02-28T06:12:10;4;4;
60816;PMS5003;51921;51.518;-3.188;2023-02-28T06:14:36;3;3;
60816;PMS5003;51921;51.518;-3.188;2023-02-28T06:17:01;4;4;
60816;PMS5003;51921;51.518;-3.188;2023-02-28T06:19:27;4;4;
60816;PMS5003;51921;51.518;-3.188;2023-02-28T06:21:53;4;4;
60816;PMS5003;51921;51.518;-3.188;2023-02-28T06:24:18;4;3;
60816;PMS5003;51921;51.518;-3.188;2023-02-28T06:26:44;2;2;
60816;PMS5003;51921;51.518;-3.188;2023-02-28T06:29:09;2;2;
60816;PMS5003;51921;51.518;-3.188;2023-02-28T06:31:35;2;2;
60816;PMS5003;51921;51.518;-3.188;2023-02-28T06:34:01;2;2;
60816;PMS5003;51921;51.518;-3.188;2023-02-28T06:36:26;2;2;
60816;PMS5003;51921;51.518;-3.188;2023-02-28T06:38:52;4;3;
60816;PMS5003;51921;51.518;-3.188;2023-02-28T06:41:17;1;1;
60816;PMS5003;51921;51.518;-3.188;2023-02-28T06:43:43;3;2;
60816;PMS5003;51921;51.518;-3.188;2023-02-28T06:46:11;1;1;
60816;PMS5003;51921;51.518;-3.188;2023-02-28T06:48:34;1;1;
60816;PMS5003;51921;51.518;-3.188;2023-02-28T06:51:01;1;1;
60816;PMS5003;51921;51.518;-3.188;2023-02-28T06:53:26;1;1;
60816;PMS5003;51921;51.518;-3.188;2023-02-28T06:55:51;1;1;
60816;PMS5003;51921;51.518;-3.188;2023-02-28T06:58:17;3;3;
60816;PMS5003;51921;51.518;-3.188;2023-02-28T07:00:43;1;1;
60816;PMS5003;51921;51.518;-3.188;2023-02-28T07:03:08;2;2;
60816;PMS5003;51921;51.518;-3.188;2023-02-28T07:05:34;1;1;
60816;PMS5003;51921;51.518;-3.188;2023-02-28T07:07:59;1;1;
60816;PMS5003;51921;51.518;-3.188;2023-02-28T07:10:25;1;1;
60816;PMS5003;51921;51.518;-3.188;2023-02-28T07:12:51;1;1;
60816;PMS5003;51921;51.518;-3.188;2023-02-28T07:15:16;5;3;
60816;PMS5003;51921;51.518;-3.188;2023-02-28T07:17:42;2;2;
60816;PMS5003;51921;51.518;-3.188;2023-02-28T07:20:08;1;1;
60816;PMS5003;51921;51.518;-3.188;2023-02-28T07:22:33;2;2;
60816;PMS5003;51921;51.518;-3.188;2023-02-28T07:24:59;4;4;
60816;PMS5003;51921;51.518;-3.188;2023-02-28T07:27:25;3;3;
60816;PMS5003;51921;51.518;-3.188;2023-02-28T07:29:50;5;4;
60816;PMS5003;51921;51.518;-3.188;2023-02-28T07:32:16;2;2;
60816;PMS5003;51921;51.518;-3.188;2023-02-28T07:34:42;2;2;
60816;PMS5003;51921;51.518;-3.188;2023-02-28T07:37:07;1;1;
60816;PMS5003;51921;51.518;-3.188;2023-02-28T07:39:33;3;3;
60816;PMS5003;51921;51.518;-3.188;2023-02-28T07:41:59;3;3;
60816;PMS5003;51921;51.518;-3.188;2023-02-28T07:44:24;1;1;
60816;PMS5003;51921;51.518;-3.188;2023-02-28T07:46:50;1;1;
60816;PMS5003;51921;51.518;-3.188;2023-02-28T07:49:16;2;2;
60816;PMS5003;51921;51.518;-3.188;2023-02-28T07:51:41;2;2;
60816;PMS5003;51921;51.518;-3.188;2023-02-28T07:54:07;3;3;
60816;PMS5003;51921;51.518;-3.188;2023-02-28T07:56:32;2;2;
60816;PMS5003;51921;51.518;-3.188;2023-02-28T07:58:58;3;3;
60816;PMS5003;51921;51.518;-3.188;2023-02-28T08:01:24;2;2;
60816;PMS5003;51921;51.518;-3.188;2023-02-28T08:03:49;1;1;
60816;PMS5003;51921;51.518;-3.188;2023-02-28T08:06:16;1;1;
60816;PMS5003;51921;51.518;-3.188;2023-02-28T08:08:40;1;0;
60816;PMS5003;51921;51.518;-3.188;2023-02-28T08:11:06;1;1;
60816;PMS5003;51921;51.518;-3.188;2023-02-28T08:13:31;3;3;
60816;PMS5003;51921;51.518;-3.188;2023-02-28T08:15:57;3;3;
60816;PMS5003;51921;51.518;-3.188;2023-02-28T08:18:23;1;1;
60816;PMS5003;51921;51.518;-3.188;2023-02-28T08:20:48;4;4;
60816;PMS5003;51921;51.518;-3.188;2023-02-28T08:23:14;5;5;
60816;PMS5003;51921;51.518;-3.188;2023-02-28T08:25:39;5;5;
60816;PMS5003;51921;51.518;-3.188;2023-02-28T08:28:05;4;4;
60816;PMS5003;51921;51.518;-3.188;2023-02-28T08:30:30;5;5;
60816;PMS5003;51921;51.518;-3.188;2023-02-28T08:32:56;8;6;
60816;PMS5003;51921;51.518;-3.188;2023-02-28T08:35:21;8;6;
60816;PMS5003;51921;51.518;-3.188;2023-02-28T08:37:47;7;7;
60816;PMS5003;51921;51.518;-3.188;2023-02-28T08:40:12;6;6;
60816;PMS5003;51921;51.518;-3.188;2023-02-28T08:42:37;7;6;
60816;PMS5003;51921;51.518;-3.188;2023-02-28T08:45:03;7;7;
60816;PMS5003;51921;51.518;-3.188;2023-02-28T08:47:29;8;7;
60816;PMS5003;51921;51.518;-3.188;2023-02-28T08:49:54;11;11;
60816;PMS5003;51921;51.518;-3.188;2023-02-28T08:52:20;12;11;
60816;PMS5003;51921;51.518;-3.188;2023-02-28T08:54:45;14;12;
60816;PMS5003;51921;51.518;-3.188;2023-02-28T08:57:11;12;11;
60816;PMS5003;51921;51.518;-3.188;2023-02-28T08:59:36;11;11;
60816;PMS5003;51921;51.518;-3.188;2023-02-28T09:02:01;9;9;
60816;PMS5003;51921;51.518;-3.188;2023-02-28T09:04:27;12;11;
60816;PMS5003;51921;51.518;-3.188;2023-02-28T09:06:53;7;7;
60816;PMS5003;51921;51.518;-3.188;2023-02-28T09:09:18;9;9;
60816;PMS5003;51921;51.518;-3.188;2023-02-28T09:11:44;10;10;
60816;PMS5003;51921;51.518;-3.188;2023-02-28T09:14:09;11;10;
60816;PMS5003;51921;51.518;-3.188;2023-02-28T09:16:35;9;7;
60816;PMS5003;51921;51.518;-3.188;2023-02-28T09:19:01;9;8;
60816;PMS5003;51921;51.518;-3.188;2023-02-28T09:21:26;11;11;
60816;PMS5003;51921;51.518;-3.188;2023-02-28T09:23:52;10;9;
60816;PMS5003;51921;51.518;-3.188;2023-02-28T09:26:19;11;10;
60816;PMS5003;51921;51.518;-3.188;2023-02-28T09:28:43;12;10;
60816;PMS5003;51921;51.518;-3.188;2023-02-28T09:31:11;10;9;
60816;PMS5003;51921;51.518;-3.188;2023-02-28T09:33:34;10;9;
60816;PMS5003;51921;51.518;-3.188;2023-02-28T09:36:00;10;10;
60816;PMS5003;51921;51.518;-3.188;2023-02-28T09:38:26;10;9;
60816;PMS5003;51921;51.518;-3.188;2023-02-28T09:40:53;9;8;
60816;PMS5003;51921;51.518;-3.188;2023-02-28T09:43:18;12;10;
60816;PMS5003;51921;51.518;-3.188;2023-02-28T09:45:44;11;11;
60816;PMS5003;51921;51.518;-3.188;2023-02-28T09:48:10;12;10;
60816;PMS5003;51921;51.518;-3.188;2023-02-28T09:50:35;9;9;
60816;PMS5003;51921;51.518;-3.188;2023-02-28T09:52:59;12;11;
60816;PMS5003;51921;51.518;-3.188;2023-02-28T09:55:27;10;9;
60816;PMS5003;51921;51.518;-3.188;2023-02-28T09:57:50;13;13;
60816;PMS5003;51921;51.518;-3.188;2023-02-28T10:00:17;14;13;
60816;PMS5003;51921;51.518;-3.188;2023-02-28T10:02:47;11;11;
60816;PMS5003;51921;51.518;-3.188;2023-02-28T10:05:08;10;10;
60816;PMS5003;51921;51.518;-3.188;2023-02-28T10:07:36;9;9;
60816;PMS5003;51921;51.518;-3.188;2023-02-28T10:09:58;11;10;
60816;PMS5003;51921;51.518;-3.188;2023-02-28T10:12:23;9;9;
60816;PMS5003;51921;51.518;-3.188;2023-02-28T10:14:49;13;11;
60816;PMS5003;51921;51.518;-3.188;2023-02-28T10:17:16;10;10;
60816;PMS5003;51921;51.518;-3.188;2023-02-28T10:19:41;12;11;
60816;PMS5003;51921;51.518;-3.188;2023-02-28T10:22:08;9;8;
60816;PMS5003;51921;51.518;-3.188;2023-02-28T10:24:33;11;9;
60816;PMS5003;51921;51.518;-3.188;2023-02-28T10:26:59;8;8;
60816;PMS5003;51921;51.518;-3.188;2023-02-28T10:29:22;9;8;
60816;PMS5003;51921;51.518;-3.188;2023-02-28T10:31:48;9;9;
60816;PMS5003;51921;51.518;-3.188;2023-02-28T10:34:14;10;9;
60816;PMS5003;51921;51.518;-3.188;2023-02-28T10:36:39;7;7;
60816;PMS5003;51921;51.518;-3.188;2023-02-28T10:41:31;9;8;
60816;PMS5003;51921;51.518;-3.188;2023-02-28T10:46:21;10;8;
60816;PMS5003;51921;51.518;-3.188;2023-02-28T10:48:49;8;8;
60816;PMS5003;51921;51.518;-3.188;2023-02-28T10:51:13;8;8;
60816;PMS5003;51921;51.518;-3.188;2023-02-28T10:53:40;12;10;
60816;PMS5003;51921;51.518;-3.188;2023-02-28T10:56:05;8;8;
60816;PMS5003;51921;51.518;-3.188;2023-02-28T10:58:30;10;9;
60816;PMS5003;51921;51.518;-3.188;2023-02-28T11:00:55;12;10;
60816;PMS5003;51921;51.518;-3.188;2023-02-28T11:03:25;9;8;
60816;PMS5003;51921;51.518;-3.188;2023-02-28T11:05:46;11;11;
60816;PMS5003;51921;51.518;-3.188;2023-02-28T11:08:12;13;12;
60816;PMS5003;51921;51.518;-3.188;2023-02-28T11:10:37;14;11;
60816;PMS5003;51921;51.518;-3.188;2023-02-28T11:13:03;12;11;
60816;PMS5003;51921;51.518;-3.188;2023-02-28T11:15:28;9;9;
60816;PMS5003;51921;51.518;-3.188;2023-02-28T11:17:54;13;12;
60816;PMS5003;51921;51.518;-3.188;2023-02-28T11:20:20;11;10;
60816;PMS5003;51921;51.518;-3.188;2023-02-28T11:22:44;11;11;
60816;PMS5003;51921;51.518;-3.188;2023-02-28T11:25:16;9;9;
60816;PMS5003;51921;51.518;-3.188;2023-02-28T11:27:46;9;9;
60816;PMS5003;51921;51.518;-3.188;2023-02-28T11:30:01;9;9;
60816;PMS5003;51921;51.518;-3.188;2023-02-28T11:32:27;11;11;
60816;PMS5003;51921;51.518;-3.188;2023-02-28T11:37:18;12;12;
60816;PMS5003;51921;51.518;-3.188;2023-02-28T11:39:44;9;9;
60816;PMS5003;51921;51.518;-3.188;2023-02-28T11:42:16;9;9;
60816;PMS5003;51921;51.518;-3.188;2023-02-28T11:44:39;7;6;
60816;PMS5003;51921;51.518;-3.188;2023-02-28T11:47:00;10;8;
60816;PMS5003;51921;51.518;-3.188;2023-02-28T11:49:30;6;6;
60816;PMS5003;51921;51.518;-3.188;2023-02-28T11:51:52;5;5;
60816;PMS5003;51921;51.518;-3.188;2023-02-28T11:54:23;8;7;
60816;PMS5003;51921;51.518;-3.188;2023-02-28T11:56:43;9;7;
60816;PMS5003;51921;51.518;-3.188;2023-02-28T11:59:13;10;10;
60816;PMS5003;51921;51.518;-3.188;2023-02-28T12:01:37;9;9;
60816;PMS5003;51921;51.518;-3.188;2023-02-28T12:04:03;8;7;
60816;PMS5003;51921;51.518;-3.188;2023-02-28T12:06:25;7;7;
60816;PMS5003;51921;51.518;-3.188;2023-02-28T12:08:54;7;6;
60816;PMS5003;51921;51.518;-3.188;2023-02-28T12:11:19;5;5;
60816;PMS5003;51921;51.518;-3.188;2023-02-28T12:13:44;8;7;
60816;PMS5003;51921;51.518;-3.188;2023-02-28T12:16:12;6;6;
60816;PMS5003;51921;51.518;-3.188;2023-02-28T12:18:37;7;7;
60816;PMS5003;51921;51.518;-3.188;2023-02-28T12:20:59;5;4;
60816;PMS5003;51921;51.518;-3.188;2023-02-28T12:25:51;4;3;
60816;PMS5003;51921;51.518;-3.188;2023-02-28T12:28:16;6;5;
60816;PMS5003;51921;51.518;-3.188;2023-02-28T12:30:41;9;8;
60816;PMS5003;51921;51.518;-3.188;2023-02-28T12:33:07;4;4;
60816;PMS5003;51921;51.518;-3.188;2023-02-28T12:35:32;5;5;
60816;PMS5003;51921;51.518;-3.188;2023-02-28T12:37:57;6;5;
60816;PMS5003;51921;51.518;-3.188;2023-02-28T12:40:23;6;5;
60816;PMS5003;51921;51.518;-3.188;2023-02-28T12:42:49;4;4;
60816;PMS5003;51921;51.518;-3.188;2023-02-28T12:45:15;4;3;
60816;PMS5003;51921;51.518;-3.188;2023-02-28T12:47:40;4;4;
60816;PMS5003;51921;51.518;-3.188;2023-02-28T12:50:06;3;3;
60816;PMS5003;51921;51.518;-3.188;2023-02-28T12:52:47;4;4;
60816;PMS5003;51921;51.518;-3.188;2023-02-28T12:54:58;4;4;
60816;PMS5003;51921;51.518;-3.188;2023-02-28T12:57:23;5;5;
60816;PMS5003;51921;51.518;-3.188;2023-02-28T12:59:48;3;3;
60816;PMS5003;51921;51.518;-3.188;2023-02-28T13:02:22;6;5;
60816;PMS5003;51921;51.518;-3.188;2023-02-28T13:04:43;5;4;
60816;PMS5003;51921;51.518;-3.188;2023-02-28T13:07:10;5;4;
60816;PMS5003;51921;51.518;-3.188;2023-02-28T13:09:30;4;4;
60816;PMS5003;51921;51.518;-3.188;2023-02-28T13:11:56;4;4;
60816;PMS5003;51921;51.518;-3.188;2023-02-28T13:14:24;2;2;
60816;PMS5003;51921;51.518;-3.188;2023-02-28T13:16:55;5;5;
60816;PMS5003;51921;51.518;-3.188;2023-02-28T13:19:16;5;5;
60816;PMS5003;51921;51.518;-3.188;2023-02-28T13:21:42;5;5;
60816;PMS5003;51921;51.518;-3.188;2023-02-28T13:24:04;5;4;
60816;PMS5003;51921;51.518;-3.188;2023-02-28T13:28:58;6;5;
60816;PMS5003;51921;51.518;-3.188;2023-02-28T13:31:20;4;3;
60816;PMS5003;51921;51.518;-3.188;2023-02-28T13:38:38;8;8;
60816;PMS5003;51921;51.518;-3.188;2023-02-28T13:48:19;3;3;
60816;PMS5003;51921;51.518;-3.188;2023-02-28T13:50:45;4;4;
60816;PMS5003;51921;51.518;-3.188;2023-02-28T13:55:36;6;6;
60816;PMS5003;51921;51.518;-3.188;2023-02-28T13:58:07;5;5;
60816;PMS5003;51921;51.518;-3.188;2023-02-28T14:00:32;5;5;
60816;PMS5003;51921;51.518;-3.188;2023-02-28T14:03:00;5;4;
60816;PMS5003;51921;51.518;-3.188;2023-02-28T14:05:18;5;5;
60816;PMS5003;51921;51.518;-3.188;2023-02-28T14:07:45;8;7;
60816;PMS5003;51921;51.518;-3.188;2023-02-28T14:10:15;5;4;
60816;PMS5003;51921;51.518;-3.188;2023-02-28T14:15:00;8;8;
60816;PMS5003;51921;51.518;-3.188;2023-02-28T14:17:26;4;4;
60816;PMS5003;51921;51.518;-3.188;2023-02-28T14:19:52;3;3;
60816;PMS5003;51921;51.518;-3.188;2023-02-28T14:24:48;3;3;
60816;PMS5003;51921;51.518;-3.188;2023-02-28T14:27:18;3;3;
60816;PMS5003;51921;51.518;-3.188;2023-02-28T14:29:46;5;4;
60816;PMS5003;51921;51.518;-3.188;2023-02-28T14:32:01;5;4;
60816;PMS5003;51921;51.518;-3.188;2023-02-28T14:34:29;3;3;
60816;PMS5003;51921;51.518;-3.188;2023-02-28T14:36:51;14;13;
60816;PMS5003;51921;51.518;-3.188;2023-02-28T14:39:17;8;7;
60816;PMS5003;51921;51.518;-3.188;2023-02-28T14:41:43;3;3;
60816;PMS5003;51921;51.518;-3.188;2023-02-28T14:44:14;4;4;
60816;PMS5003;51921;51.518;-3.188;2023-02-28T14:46:35;4;3;
60816;PMS5003;51921;51.518;-3.188;2023-02-28T14:48:59;5;4;
60816;PMS5003;51921;51.518;-3.188;2023-02-28T14:51:24;4;4;
60816;PMS5003;51921;51.518;-3.188;2023-02-28T14:53:52;4;4;
60816;PMS5003;51921;51.518;-3.188;2023-02-28T14:56:19;4;4;
60816;PMS5003;51921;51.518;-3.188;2023-02-28T14:58:41;7;6;
60816;PMS5003;51921;51.518;-3.188;2023-02-28T15:01:10;4;4;
60816;PMS5003;51921;51.518;-3.188;2023-02-28T15:03:33;3;3;
60816;PMS5003;51921;51.518;-3.188;2023-02-28T15:05:59;3;3;
60816;PMS5003;51921;51.518;-3.188;2023-02-28T15:08:23;4;4;
60816;PMS5003;51921;51.518;-3.188;2023-02-28T15:10:53;4;3;
60816;PMS5003;51921;51.518;-3.188;2023-02-28T15:13:15;3;3;
60816;PMS5003;51921;51.518;-3.188;2023-02-28T15:15:42;5;4;
60816;PMS5003;51921;51.518;-3.188;2023-02-28T15:18:06;5;5;
60816;PMS5003;51921;51.518;-3.188;2023-02-28T15:20:32;3;3;
60816;PMS5003;51921;51.518;-3.188;2023-02-28T15:22:57;4;3;
60816;PMS5003;51921;51.518;-3.188;2023-02-28T15:25:22;4;4;
60816;PMS5003;51921;51.518;-3.188;2023-02-28T15:27:49;7;6;
60816;PMS5003;51921;51.518;-3.188;2023-02-28T15:30:15;3;3;
60816;PMS5003;51921;51.518;-3.188;2023-02-28T15:32:39;4;3;
60816;PMS5003;51921;51.518;-3.188;2023-02-28T15:39:57;5;4;
60816;PMS5003;51921;51.518;-3.188;2023-02-28T15:42:23;4;4;
60816;PMS5003;51921;51.518;-3.188;2023-02-28T15:44:47;4;4;
60816;PMS5003;51921;51.518;-3.188;2023-02-28T15:47:15;4;3;
60816;PMS5003;51921;51.518;-3.188;2023-02-28T15:49:39;5;4;
60816;PMS5003;51921;51.518;-3.188;2023-02-28T15:52:04;2;2;
60816;PMS5003;51921;51.518;-3.188;2023-02-28T15:54:30;3;3;
60816;PMS5003;51921;51.518;-3.188;2023-02-28T15:56:56;3;3;
60816;PMS5003;51921;51.518;-3.188;2023-02-28T15:59:22;4;3;
60816;PMS5003;51921;51.518;-3.188;2023-02-28T16:01:46;1;1;
60816;PMS5003;51921;51.518;-3.188;2023-02-28T16:04:14;3;2;
60816;PMS5003;51921;51.518;-3.188;2023-02-28T16:06:39;2;2;
60816;PMS5003;51921;51.518;-3.188;2023-02-28T16:09:09;2;2;
60816;PMS5003;51921;51.518;-3.188;2023-02-28T16:11:29;4;2;
60816;PMS5003;51921;51.518;-3.188;2023-02-28T16:13:54;2;2;
60816;PMS5003;51921;51.518;-3.188;2023-02-28T16:16:21;2;2;
60816;PMS5003;51921;51.518;-3.188;2023-02-28T16:18:46;3;3;
60816;PMS5003;51921;51.518;-3.188;2023-02-28T16:21:11;4;4;
60816;PMS5003;51921;51.518;-3.188;2023-02-28T16:23:37;5;4;
60816;PMS5003;51921;51.518;-3.188;2023-02-28T16:26:03;5;5;
60816;PMS5003;51921;51.518;-3.188;2023-02-28T16:28:29;2;2;
60816;PMS5003;51921;51.518;-3.188;2023-02-28T16:30:54;2;2;
60816;PMS5003;51921;51.518;-3.188;2023-02-28T16:33:19;4;3;
60816;PMS5003;51921;51.518;-3.188;2023-02-28T16:35:45;3;3;
60816;PMS5003;51921;51.518;-3.188;2023-02-28T16:38:10;2;2;
60816;PMS5003;51921;51.518;-3.188;2023-02-28T16:40:36;4;4;
60816;PMS5003;51921;51.518;-3.188;2023-02-28T16:43:05;4;4;
60816;PMS5003;51921;51.518;-3.188;2023-02-28T16:45:28;3;3;
60816;PMS5003;51921;51.518;-3.188;2023-02-28T16:47:53;4;4;
60816;PMS5003;51921;51.518;-3.188;2023-02-28T16:50:19;4;4;
60816;PMS5003;51921;51.518;-3.188;2023-02-28T16:52:44;4;4;
60816;PMS5003;51921;51.518;-3.188;2023-02-28T16:55:10;3;3;
60816;PMS5003;51921;51.518;-3.188;2023-02-28T16:57:35;6;5;
60816;PMS5003;51921;51.518;-3.188;2023-02-28T17:00:01;4;4;
60816;PMS5003;51921;51.518;-3.188;2023-02-28T17:02:26;4;4;